Aviation Digital Data Service (ADDS)

Output produced by TAFs form (1640 UTC 30 October 2014)
found at http://aviationweather.gov/adds/tafs/
 
KAEG 301120Z 3012/3112 33008KT P6SM SKC 
     FM302300 13008KT P6SM SKC